Baudette International Airport
KBDE : rendu visible

Aérodrome :











RETROUVEZ-NOUS SUR...

 
LOGIN :

S'inscrire | Disclaimer

   EN    FR    IT 

 









Légende :    VFR   VFR Marginal   IFR   IFR Intensif   IFR Très Intensif
Visi : 
Plafond : 
>= 8 km
>= 3000ft
5 à 8 km
1000 à 3000 ft
1500m à 5 km
500 à 1000 ft
800 à 1500m
200 à 500 ft
< 800m
< 200 ft
Symboles :   Orages  Brouillard  Fortes neiges  Fortes précipitations  Vent > 20 kt






- Altitude de l'aérodrome : 1086 ft


KBDE - Baudette International

DERNIER METAR :
  • 190206Z AUTO 31015KT 5SM -SN BKN017 OVC025 M14/M17 A3002 RMK AO2 P0000 T11441172

METARs EXPIRÉS :
  • 190153Z AUTO 31016G25KT 2 1/2SM -SN BR BKN017 OVC027 M14/M17 A3001 RMK AO2 SLP189 P0000 T11441167
  • 190127Z AUTO 31018KT 1 1/2SM -SN BKN019 OVC027 M14/M17 A3000 RMK AO2 P0000 T11391167
  • 190053Z AUTO 30015KT 1 1/4SM -SN OVC020 M14/M17 A2998 RMK AO2 SLP177 P0000 T11391167
  • 190030Z AUTO 30015G22KT 1 1/4SM -SN OVC019 M13/M16 A2996 RMK AO2 P0000 T11331161
  • 190012Z AUTO 30015G21KT 1 1/2SM -SN OVC019 M13/M16 A2995 RMK AO2 P0000 T11331161
  • 190002Z AUTO 31017G25KT 1 1/4SM -SN BKN019 OVC025 M13/M16 A2994 RMK AO2 P0000 T11331161
  • 182325Z AUTO 30014G25KT 1 1/4SM -SN BKN016 OVC025 M13/M16 A2992 RMK AO2 PK WND 30028/2254 P0000 T11281156

TAF N/A



MET'MAP, la Météo Aéronautique d'un coup d'oeil ! - Copyright ORBIFLY Décembre 2007 - Disclaimer

ORBIFLY MET'MAP TEAM :

Programmation & Développement : Alexandra Zaïnal
Sur une idée originale de : Baudouin d'Aumeries
Assistance à la programmation : Marc-Olivier Méhu
Soutien technique & logistique : Manuel Goepfert

Contact : metmap@orbifly.com




SOURCES & CREDITS :

   NOAA       Earth
Advisory